sensor_id;sensor_type;location;lat;lon;timestamp;P1;durP1;ratioP1;P2;durP2;ratioP2
3321;SDS011;1673;51.388;7.086;2023-07-31T00:01:05;14.57;;;5.80;;
3321;SDS011;1673;51.388;7.086;2023-07-31T00:03:35;17.83;;;6.38;;
3321;SDS011;1673;51.388;7.086;2023-07-31T00:06:05;15.85;;;5.95;;
3321;SDS011;1673;51.388;7.086;2023-07-31T00:08:38;19.17;;;6.28;;
3321;SDS011;1673;51.388;7.086;2023-07-31T00:11:08;16.43;;;6.20;;
3321;SDS011;1673;51.388;7.086;2023-07-31T00:13:39;15.00;;;6.30;;
3321;SDS011;1673;51.388;7.086;2023-07-31T00:16:10;19.05;;;5.90;;
3321;SDS011;1673;51.388;7.086;2023-07-31T00:18:40;18.73;;;5.90;;
3321;SDS011;1673;51.388;7.086;2023-07-31T00:21:10;17.67;;;6.18;;
3321;SDS011;1673;51.388;7.086;2023-07-31T00:23:43;19.00;;;5.78;;
3321;SDS011;1673;51.388;7.086;2023-07-31T00:26:13;21.88;;;6.47;;
3321;SDS011;1673;51.388;7.086;2023-07-31T00:28:43;18.58;;;6.20;;
3321;SDS011;1673;51.388;7.086;2023-07-31T00:31:13;17.25;;;5.82;;
3321;SDS011;1673;51.388;7.086;2023-07-31T00:33:44;20.40;;;5.53;;
3321;SDS011;1673;51.388;7.086;2023-07-31T00:36:14;18.00;;;6.97;;
3321;SDS011;1673;51.388;7.086;2023-07-31T00:38:47;21.85;;;7.22;;
3321;SDS011;1673;51.388;7.086;2023-07-31T00:41:17;18.85;;;6.40;;
3321;SDS011;1673;51.388;7.086;2023-07-31T00:43:48;21.25;;;6.18;;
3321;SDS011;1673;51.388;7.086;2023-07-31T00:46:17;20.27;;;6.05;;
3321;SDS011;1673;51.388;7.086;2023-07-31T00:48:48;19.38;;;6.22;;
3321;SDS011;1673;51.388;7.086;2023-07-31T00:51:19;21.88;;;5.68;;
3321;SDS011;1673;51.388;7.086;2023-07-31T00:53:52;19.95;;;6.05;;
3321;SDS011;1673;51.388;7.086;2023-07-31T00:56:23;22.90;;;6.25;;
3321;SDS011;1673;51.388;7.086;2023-07-31T00:58:53;19.27;;;6.50;;
3321;SDS011;1673;51.388;7.086;2023-07-31T01:01:24;17.13;;;6.18;;
3321;SDS011;1673;51.388;7.086;2023-07-31T01:03:55;20.20;;;6.28;;
3321;SDS011;1673;51.388;7.086;2023-07-31T01:06:28;18.42;;;5.95;;
3321;SDS011;1673;51.388;7.086;2023-07-31T01:09:06;19.05;;;6.53;;
3321;SDS011;1673;51.388;7.086;2023-07-31T01:11:42;17.48;;;6.50;;
3321;SDS011;1673;51.388;7.086;2023-07-31T01:14:15;22.48;;;6.47;;
3321;SDS011;1673;51.388;7.086;2023-07-31T01:16:45;16.23;;;5.53;;
3321;SDS011;1673;51.388;7.086;2023-07-31T01:19:17;17.80;;;5.35;;
3321;SDS011;1673;51.388;7.086;2023-07-31T01:21:56;21.08;;;6.00;;
3321;SDS011;1673;51.388;7.086;2023-07-31T01:24:40;20.17;;;6.78;;
3321;SDS011;1673;51.388;7.086;2023-07-31T01:27:15;13.07;;;5.47;;
3321;SDS011;1673;51.388;7.086;2023-07-31T01:29:48;19.20;;;5.30;;
3321;SDS011;1673;51.388;7.086;2023-07-31T01:32:22;14.80;;;5.20;;
3321;SDS011;1673;51.388;7.086;2023-07-31T01:34:52;18.67;;;5.50;;
3321;SDS011;1673;51.388;7.086;2023-07-31T01:37:27;15.27;;;6.00;;
3321;SDS011;1673;51.388;7.086;2023-07-31T01:39:58;19.02;;;5.40;;
3321;SDS011;1673;51.388;7.086;2023-07-31T01:42:31;14.67;;;5.73;;
3321;SDS011;1673;51.388;7.086;2023-07-31T01:45:01;23.25;;;5.40;;
3321;SDS011;1673;51.388;7.086;2023-07-31T01:47:32;21.40;;;5.33;;
3321;SDS011;1673;51.388;7.086;2023-07-31T01:50:02;16.85;;;5.70;;
3321;SDS011;1673;51.388;7.086;2023-07-31T01:52:33;14.80;;;5.40;;
3321;SDS011;1673;51.388;7.086;2023-07-31T01:55:03;20.37;;;6.20;;
3321;SDS011;1673;51.388;7.086;2023-07-31T01:57:36;13.43;;;5.20;;
3321;SDS011;1673;51.388;7.086;2023-07-31T02:00:08;16.17;;;5.90;;
3321;SDS011;1673;51.388;7.086;2023-07-31T02:02:38;15.88;;;4.60;;
3321;SDS011;1673;51.388;7.086;2023-07-31T02:05:09;14.57;;;4.80;;
3321;SDS011;1673;51.388;7.086;2023-07-31T02:07:39;21.08;;;5.25;;
3321;SDS011;1673;51.388;7.086;2023-07-31T02:10:09;20.13;;;5.30;;
3321;SDS011;1673;51.388;7.086;2023-07-31T02:12:42;16.02;;;5.35;;
3321;SDS011;1673;51.388;7.086;2023-07-31T02:15:12;17.00;;;5.63;;
3321;SDS011;1673;51.388;7.086;2023-07-31T02:17:42;15.55;;;5.90;;
3321;SDS011;1673;51.388;7.086;2023-07-31T02:20:12;14.75;;;5.30;;
3321;SDS011;1673;51.388;7.086;2023-07-31T02:22:42;17.27;;;4.90;;
3321;SDS011;1673;51.388;7.086;2023-07-31T02:25:12;16.20;;;5.90;;
3321;SDS011;1673;51.388;7.086;2023-07-31T02:27:47;21.58;;;6.03;;
3321;SDS011;1673;51.388;7.086;2023-07-31T02:30:19;14.27;;;5.38;;
3321;SDS011;1673;51.388;7.086;2023-07-31T02:32:50;18.77;;;5.70;;
3321;SDS011;1673;51.388;7.086;2023-07-31T02:35:20;14.77;;;5.70;;
3321;SDS011;1673;51.388;7.086;2023-07-31T02:37:50;15.00;;;5.15;;
3321;SDS011;1673;51.388;7.086;2023-07-31T02:40:20;15.52;;;5.70;;
3321;SDS011;1673;51.388;7.086;2023-07-31T02:42:53;22.02;;;6.55;;
3321;SDS011;1673;51.388;7.086;2023-07-31T02:45:23;18.63;;;6.10;;
3321;SDS011;1673;51.388;7.086;2023-07-31T02:47:53;15.53;;;5.40;;
3321;SDS011;1673;51.388;7.086;2023-07-31T02:50:23;17.35;;;4.90;;
3321;SDS011;1673;51.388;7.086;2023-07-31T02:52:54;19.90;;;5.65;;
3321;SDS011;1673;51.388;7.086;2023-07-31T02:55:25;17.98;;;5.63;;
3321;SDS011;1673;51.388;7.086;2023-07-31T02:57:57;15.87;;;5.57;;
3321;SDS011;1673;51.388;7.086;2023-07-31T03:00:27;23.27;;;5.78;;
3321;SDS011;1673;51.388;7.086;2023-07-31T03:02:58;14.57;;;5.18;;
3321;SDS011;1673;51.388;7.086;2023-07-31T03:05:28;18.10;;;6.30;;
3321;SDS011;1673;51.388;7.086;2023-07-31T03:07:58;16.50;;;5.35;;
3321;SDS011;1673;51.388;7.086;2023-07-31T03:10:28;18.85;;;5.80;;
3321;SDS011;1673;51.388;7.086;2023-07-31T03:13:01;16.00;;;5.63;;
3321;SDS011;1673;51.388;7.086;2023-07-31T03:15:31;22.57;;;6.17;;
3321;SDS011;1673;51.388;7.086;2023-07-31T03:18:01;17.77;;;5.28;;
3321;SDS011;1673;51.388;7.086;2023-07-31T03:20:31;20.48;;;5.50;;
3321;SDS011;1673;51.388;7.086;2023-07-31T03:23:01;15.77;;;5.60;;
3321;SDS011;1673;51.388;7.086;2023-07-31T03:25:31;22.08;;;6.07;;
3321;SDS011;1673;51.388;7.086;2023-07-31T03:28:04;14.50;;;5.60;;
3321;SDS011;1673;51.388;7.086;2023-07-31T03:30:36;16.48;;;5.70;;
3321;SDS011;1673;51.388;7.086;2023-07-31T03:33:06;19.88;;;5.20;;
3321;SDS011;1673;51.388;7.086;2023-07-31T03:35:36;22.00;;;5.55;;
3321;SDS011;1673;51.388;7.086;2023-07-31T03:38:06;20.00;;;5.25;;
3321;SDS011;1673;51.388;7.086;2023-07-31T03:40:38;16.58;;;5.65;;
3321;SDS011;1673;51.388;7.086;2023-07-31T03:43:11;15.02;;;4.80;;
3321;SDS011;1673;51.388;7.086;2023-07-31T03:45:41;15.07;;;5.00;;
3321;SDS011;1673;51.388;7.086;2023-07-31T03:48:12;20.13;;;5.85;;
3321;SDS011;1673;51.388;7.086;2023-07-31T03:50:44;15.00;;;5.22;;
3321;SDS011;1673;51.388;7.086;2023-07-31T03:53:15;18.33;;;5.50;;
3321;SDS011;1673;51.388;7.086;2023-07-31T03:55:46;14.85;;;5.15;;
3321;SDS011;1673;51.388;7.086;2023-07-31T03:58:18;15.35;;;4.85;;
3321;SDS011;1673;51.388;7.086;2023-07-31T04:00:49;14.18;;;5.38;;
3321;SDS011;1673;51.388;7.086;2023-07-31T04:03:20;16.75;;;5.70;;
3321;SDS011;1673;51.388;7.086;2023-07-31T04:05:50;15.45;;;5.35;;
3321;SDS011;1673;51.388;7.086;2023-07-31T04:08:20;16.40;;;5.40;;
3321;SDS011;1673;51.388;7.086;2023-07-31T04:10:50;18.08;;;4.90;;
3321;SDS011;1673;51.388;7.086;2023-07-31T04:13:24;16.38;;;5.50;;
3321;SDS011;1673;51.388;7.086;2023-07-31T04:15:55;16.80;;;5.95;;
3321;SDS011;1673;51.388;7.086;2023-07-31T04:18:26;15.80;;;5.15;;
3321;SDS011;1673;51.388;7.086;2023-07-31T04:20:57;15.13;;;6.07;;
3321;SDS011;1673;51.388;7.086;2023-07-31T04:23:28;18.65;;;5.50;;
3321;SDS011;1673;51.388;7.086;2023-07-31T04:25:58;18.00;;;5.50;;
3321;SDS011;1673;51.388;7.086;2023-07-31T04:28:31;15.80;;;5.57;;
3321;SDS011;1673;51.388;7.086;2023-07-31T04:31:01;17.00;;;5.15;;
3321;SDS011;1673;51.388;7.086;2023-07-31T04:33:31;12.23;;;4.95;;
3321;SDS011;1673;51.388;7.086;2023-07-31T04:36:01;17.27;;;5.47;;
3321;SDS011;1673;51.388;7.086;2023-07-31T04:38:32;19.38;;;5.72;;
3321;SDS011;1673;51.388;7.086;2023-07-31T04:41:02;15.27;;;5.78;;
3321;SDS011;1673;51.388;7.086;2023-07-31T04:43:35;16.25;;;6.25;;
3321;SDS011;1673;51.388;7.086;2023-07-31T04:46:06;18.93;;;6.00;;
3321;SDS011;1673;51.388;7.086;2023-07-31T04:48:36;18.17;;;5.63;;
3321;SDS011;1673;51.388;7.086;2023-07-31T04:51:06;18.87;;;6.60;;
3321;SDS011;1673;51.388;7.086;2023-07-31T04:53:37;20.45;;;5.95;;
3321;SDS011;1673;51.388;7.086;2023-07-31T04:56:07;21.90;;;6.68;;
3321;SDS011;1673;51.388;7.086;2023-07-31T04:58:41;20.38;;;6.03;;
3321;SDS011;1673;51.388;7.086;2023-07-31T05:01:11;15.75;;;6.07;;
3321;SDS011;1673;51.388;7.086;2023-07-31T05:03:51;18.25;;;6.47;;
3321;SDS011;1673;51.388;7.086;2023-07-31T05:06:21;17.13;;;6.10;;
3321;SDS011;1673;51.388;7.086;2023-07-31T05:08:51;17.73;;;6.10;;
3321;SDS011;1673;51.388;7.086;2023-07-31T05:11:22;15.77;;;5.90;;
3321;SDS011;1673;51.388;7.086;2023-07-31T05:13:55;22.05;;;5.55;;
3321;SDS011;1673;51.388;7.086;2023-07-31T05:16:25;13.95;;;6.50;;
3321;SDS011;1673;51.388;7.086;2023-07-31T05:18:57;18.50;;;6.50;;
3321;SDS011;1673;51.388;7.086;2023-07-31T05:21:27;22.57;;;6.80;;
3321;SDS011;1673;51.388;7.086;2023-07-31T05:23:57;13.48;;;6.00;;
3321;SDS011;1673;51.388;7.086;2023-07-31T05:26:27;16.23;;;5.90;;
3321;SDS011;1673;51.388;7.086;2023-07-31T05:29:00;15.73;;;6.82;;
3321;SDS011;1673;51.388;7.086;2023-07-31T05:31:31;18.50;;;7.22;;
3321;SDS011;1673;51.388;7.086;2023-07-31T05:34:02;20.07;;;6.50;;
3321;SDS011;1673;51.388;7.086;2023-07-31T05:36:31;20.77;;;6.03;;
3321;SDS011;1673;51.388;7.086;2023-07-31T05:42:27;17.60;;;6.03;;
3321;SDS011;1673;51.388;7.086;2023-07-31T05:45:11;14.05;;;5.85;;
3321;SDS011;1673;51.388;7.086;2023-07-31T05:47:49;17.15;;;6.40;;
3321;SDS011;1673;51.388;7.086;2023-07-31T05:50:23;15.80;;;5.80;;
3321;SDS011;1673;51.388;7.086;2023-07-31T05:52:55;16.27;;;6.00;;
3321;SDS011;1673;51.388;7.086;2023-07-31T05:55:27;11.75;;;5.78;;
3321;SDS011;1673;51.388;7.086;2023-07-31T05:57:58;16.35;;;6.20;;
3321;SDS011;1673;51.388;7.086;2023-07-31T06:00:36;14.70;;;6.73;;
3321;SDS011;1673;51.388;7.086;2023-07-31T06:03:08;19.73;;;6.95;;
3321;SDS011;1673;51.388;7.086;2023-07-31T06:05:47;16.15;;;6.10;;
3321;SDS011;1673;51.388;7.086;2023-07-31T06:08:20;13.50;;;5.63;;
3321;SDS011;1673;51.388;7.086;2023-07-31T06:11:15;17.75;;;6.10;;
3321;SDS011;1673;51.388;7.086;2023-07-31T06:14:00;12.55;;;5.47;;
3321;SDS011;1673;51.388;7.086;2023-07-31T06:16:45;17.13;;;6.15;;
3321;SDS011;1673;51.388;7.086;2023-07-31T06:19:18;12.68;;;6.05;;
3321;SDS011;1673;51.388;7.086;2023-07-31T06:21:48;13.85;;;5.88;;
3321;SDS011;1673;51.388;7.086;2023-07-31T06:24:18;12.95;;;6.25;;
3321;SDS011;1673;51.388;7.086;2023-07-31T06:26:48;15.45;;;5.70;;
3321;SDS011;1673;51.388;7.086;2023-07-31T06:29:21;15.73;;;6.53;;
3321;SDS011;1673;51.388;7.086;2023-07-31T06:31:57;17.65;;;6.15;;
3321;SDS011;1673;51.388;7.086;2023-07-31T06:34:30;14.48;;;5.78;;
3321;SDS011;1673;51.388;7.086;2023-07-31T06:37:00;14.65;;;6.10;;
3321;SDS011;1673;51.388;7.086;2023-07-31T06:39:31;11.93;;;5.82;;
3321;SDS011;1673;51.388;7.086;2023-07-31T06:42:01;14.80;;;5.80;;
3321;SDS011;1673;51.388;7.086;2023-07-31T06:44:34;14.00;;;5.70;;
3321;SDS011;1673;51.388;7.086;2023-07-31T06:47:09;17.50;;;5.80;;
3321;SDS011;1673;51.388;7.086;2023-07-31T06:49:40;11.98;;;5.85;;
3321;SDS011;1673;51.388;7.086;2023-07-31T06:52:12;14.55;;;6.43;;
3321;SDS011;1673;51.388;7.086;2023-07-31T06:54:42;11.95;;;4.80;;
3321;SDS011;1673;51.388;7.086;2023-07-31T06:57:13;18.00;;;5.80;;
3321;SDS011;1673;51.388;7.086;2023-07-31T06:59:43;16.45;;;5.90;;
3321;SDS011;1673;51.388;7.086;2023-07-31T07:02:15;14.17;;;5.07;;
3321;SDS011;1673;51.388;7.086;2023-07-31T07:04:46;12.10;;;5.23;;
3321;SDS011;1673;51.388;7.086;2023-07-31T07:07:17;14.05;;;5.22;;
3321;SDS011;1673;51.388;7.086;2023-07-31T07:09:47;12.98;;;5.45;;
3321;SDS011;1673;51.388;7.086;2023-07-31T07:12:18;11.35;;;5.63;;
3321;SDS011;1673;51.388;7.086;2023-07-31T07:14:50;12.77;;;5.40;;
3321;SDS011;1673;51.388;7.086;2023-07-31T07:17:23;15.63;;;5.97;;
3321;SDS011;1673;51.388;7.086;2023-07-31T07:19:55;19.65;;;6.20;;
3321;SDS011;1673;51.388;7.086;2023-07-31T07:22:30;18.50;;;6.00;;
3321;SDS011;1673;51.388;7.086;2023-07-31T07:25:00;15.10;;;5.82;;
3321;SDS011;1673;51.388;7.086;2023-07-31T07:27:36;14.82;;;5.70;;
3321;SDS011;1673;51.388;7.086;2023-07-31T07:30:11;13.82;;;5.60;;
3321;SDS011;1673;51.388;7.086;2023-07-31T07:45:01;15.10;;;5.40;;
3321;SDS011;1673;51.388;7.086;2023-07-31T07:47:44;19.38;;;5.95;;
3321;SDS011;1673;51.388;7.086;2023-07-31T07:50:29;14.70;;;6.20;;
3321;SDS011;1673;51.388;7.086;2023-07-31T07:53:05;16.42;;;5.90;;
3321;SDS011;1673;51.388;7.086;2023-07-31T07:55:57;11.30;;;5.40;;
3321;SDS011;1673;51.388;7.086;2023-07-31T07:58:27;11.20;;;5.72;;
3321;SDS011;1673;51.388;7.086;2023-07-31T08:01:03;15.35;;;6.53;;
3321;SDS011;1673;51.388;7.086;2023-07-31T08:03:40;17.50;;;6.00;;
3321;SDS011;1673;51.388;7.086;2023-07-31T08:06:12;17.23;;;6.57;;
3321;SDS011;1673;51.388;7.086;2023-07-31T08:08:46;22.42;;;6.32;;
3321;SDS011;1673;51.388;7.086;2023-07-31T08:11:18;14.75;;;5.30;;
3321;SDS011;1673;51.388;7.086;2023-07-31T08:13:49;19.70;;;5.75;;
3321;SDS011;1673;51.388;7.086;2023-07-31T08:16:29;23.70;;;6.38;;
3321;SDS011;1673;51.388;7.086;2023-07-31T08:19:06;13.73;;;5.65;;
3321;SDS011;1673;51.388;7.086;2023-07-31T08:21:48;12.90;;;5.15;;
3321;SDS011;1673;51.388;7.086;2023-07-31T08:24:27;11.77;;;5.35;;
3321;SDS011;1673;51.388;7.086;2023-07-31T08:27:20;11.02;;;4.63;;
3321;SDS011;1673;51.388;7.086;2023-07-31T08:29:56;14.38;;;4.72;;
3321;SDS011;1673;51.388;7.086;2023-07-31T08:32:29;10.70;;;4.30;;
3321;SDS011;1673;51.388;7.086;2023-07-31T08:34:59;10.90;;;4.85;;
3321;SDS011;1673;51.388;7.086;2023-07-31T08:37:31;12.57;;;4.80;;
3321;SDS011;1673;51.388;7.086;2023-07-31T08:40:03;10.73;;;4.03;;
3321;SDS011;1673;51.388;7.086;2023-07-31T08:42:52;8.10;;;3.97;;
3321;SDS011;1673;51.388;7.086;2023-07-31T08:45:31;11.00;;;4.40;;
3321;SDS011;1673;51.388;7.086;2023-07-31T08:48:15;12.02;;;4.63;;
3321;SDS011;1673;51.388;7.086;2023-07-31T08:50:51;10.95;;;4.60;;
3321;SDS011;1673;51.388;7.086;2023-07-31T08:53:34;10.90;;;4.97;;
3321;SDS011;1673;51.388;7.086;2023-07-31T08:56:05;11.65;;;4.55;;
3321;SDS011;1673;51.388;7.086;2023-07-31T08:58:56;9.30;;;5.00;;
3321;SDS011;1673;51.388;7.086;2023-07-31T09:01:27;10.95;;;5.60;;
3321;SDS011;1673;51.388;7.086;2023-07-31T09:04:02;10.82;;;5.10;;
3321;SDS011;1673;51.388;7.086;2023-07-31T09:06:33;13.20;;;5.10;;
3321;SDS011;1673;51.388;7.086;2023-07-31T09:09:04;13.10;;;5.30;;
3321;SDS011;1673;51.388;7.086;2023-07-31T09:11:36;10.20;;;5.43;;
3321;SDS011;1673;51.388;7.086;2023-07-31T09:14:08;9.63;;;4.80;;
3321;SDS011;1673;51.388;7.086;2023-07-31T09:16:51;13.77;;;4.75;;
3321;SDS011;1673;51.388;7.086;2023-07-31T09:19:32;10.52;;;4.60;;
3321;SDS011;1673;51.388;7.086;2023-07-31T09:22:04;11.15;;;4.53;;
3321;SDS011;1673;51.388;7.086;2023-07-31T09:24:35;12.02;;;4.40;;
3321;SDS011;1673;51.388;7.086;2023-07-31T09:27:05;8.20;;;4.00;;
3321;SDS011;1673;51.388;7.086;2023-07-31T09:29:38;8.95;;;3.60;;
3321;SDS011;1673;51.388;7.086;2023-07-31T09:32:12;9.25;;;4.38;;
3321;SDS011;1673;51.388;7.086;2023-07-31T09:34:48;8.80;;;3.88;;
3321;SDS011;1673;51.388;7.086;2023-07-31T09:37:18;7.97;;;4.30;;
3321;SDS011;1673;51.388;7.086;2023-07-31T09:39:49;10.25;;;4.07;;
3321;SDS011;1673;51.388;7.086;2023-07-31T09:42:25;9.43;;;4.32;;
3321;SDS011;1673;51.388;7.086;2023-07-31T09:45:06;10.10;;;4.87;;
3321;SDS011;1673;51.388;7.086;2023-07-31T09:47:37;9.27;;;4.37;;
3321;SDS011;1673;51.388;7.086;2023-07-31T09:50:10;8.27;;;4.10;;
3321;SDS011;1673;51.388;7.086;2023-07-31T09:52:40;12.17;;;4.90;;
3321;SDS011;1673;51.388;7.086;2023-07-31T09:55:11;8.65;;;4.07;;
3321;SDS011;1673;51.388;7.086;2023-07-31T09:57:41;10.18;;;4.50;;
3321;SDS011;1673;51.388;7.086;2023-07-31T10:00:14;8.97;;;4.50;;
3321;SDS011;1673;51.388;7.086;2023-07-31T10:02:46;9.63;;;3.85;;
3321;SDS011;1673;51.388;7.086;2023-07-31T10:05:19;7.05;;;3.25;;
3321;SDS011;1673;51.388;7.086;2023-07-31T10:07:51;8.07;;;3.78;;
3321;SDS011;1673;51.388;7.086;2023-07-31T10:10:24;7.10;;;3.20;;
3321;SDS011;1673;51.388;7.086;2023-07-31T10:12:55;7.03;;;3.40;;
3321;SDS011;1673;51.388;7.086;2023-07-31T10:15:29;8.68;;;3.63;;
3321;SDS011;1673;51.388;7.086;2023-07-31T10:17:59;8.65;;;3.20;;
3321;SDS011;1673;51.388;7.086;2023-07-31T10:20:32;9.70;;;3.60;;
3321;SDS011;1673;51.388;7.086;2023-07-31T10:23:03;6.72;;;3.60;;
3321;SDS011;1673;51.388;7.086;2023-07-31T10:25:34;12.52;;;4.30;;
3321;SDS011;1673;51.388;7.086;2023-07-31T10:28:04;11.27;;;3.50;;
3321;SDS011;1673;51.388;7.086;2023-07-31T10:30:34;9.38;;;3.90;;
3321;SDS011;1673;51.388;7.086;2023-07-31T10:33:05;9.77;;;4.10;;
3321;SDS011;1673;51.388;7.086;2023-07-31T10:35:38;8.50;;;3.90;;
3321;SDS011;1673;51.388;7.086;2023-07-31T10:38:09;10.23;;;3.70;;
3321;SDS011;1673;51.388;7.086;2023-07-31T10:40:40;7.90;;;3.72;;
3321;SDS011;1673;51.388;7.086;2023-07-31T10:43:15;8.68;;;4.05;;
3321;SDS011;1673;51.388;7.086;2023-07-31T10:45:54;12.02;;;4.60;;
3321;SDS011;1673;51.388;7.086;2023-07-31T10:48:24;11.45;;;4.30;;
3321;SDS011;1673;51.388;7.086;2023-07-31T10:50:57;13.80;;;5.20;;
3321;SDS011;1673;51.388;7.086;2023-07-31T10:53:30;9.38;;;4.38;;
3321;SDS011;1673;51.388;7.086;2023-07-31T10:56:02;13.23;;;5.00;;
3321;SDS011;1673;51.388;7.086;2023-07-31T10:58:33;9.38;;;4.50;;
3321;SDS011;1673;51.388;7.086;2023-07-31T11:01:04;11.40;;;4.40;;
3321;SDS011;1673;51.388;7.086;2023-07-31T11:03:42;9.68;;;4.45;;
3321;SDS011;1673;51.388;7.086;2023-07-31T11:06:16;10.57;;;4.63;;
3321;SDS011;1673;51.388;7.086;2023-07-31T11:08:46;12.10;;;4.80;;
3321;SDS011;1673;51.388;7.086;2023-07-31T11:11:18;11.27;;;5.00;;
3321;SDS011;1673;51.388;7.086;2023-07-31T11:13:49;10.30;;;4.85;;
3321;SDS011;1673;51.388;7.086;2023-07-31T11:16:21;10.52;;;4.30;;
3321;SDS011;1673;51.388;7.086;2023-07-31T11:18:52;13.90;;;5.28;;
3321;SDS011;1673;51.388;7.086;2023-07-31T11:21:25;11.02;;;4.80;;
3321;SDS011;1673;51.388;7.086;2023-07-31T11:23:56;10.68;;;5.10;;
3321;SDS011;1673;51.388;7.086;2023-07-31T11:26:27;11.23;;;4.40;;
3321;SDS011;1673;51.388;7.086;2023-07-31T11:28:57;13.68;;;4.80;;
3321;SDS011;1673;51.388;7.086;2023-07-31T11:31:28;11.02;;;4.45;;
3321;SDS011;1673;51.388;7.086;2023-07-31T11:34:04;10.07;;;4.10;;
3321;SDS011;1673;51.388;7.086;2023-07-31T11:36:37;14.65;;;5.22;;
3321;SDS011;1673;51.388;7.086;2023-07-31T11:39:08;13.70;;;4.97;;
3321;SDS011;1673;51.388;7.086;2023-07-31T11:41:40;12.97;;;4.90;;
3321;SDS011;1673;51.388;7.086;2023-07-31T11:44:11;9.45;;;4.70;;
3321;SDS011;1673;51.388;7.086;2023-07-31T11:46:52;10.23;;;4.38;;
3321;SDS011;1673;51.388;7.086;2023-07-31T11:49:22;11.13;;;4.45;;
3321;SDS011;1673;51.388;7.086;2023-07-31T11:51:55;7.20;;;3.60;;
3321;SDS011;1673;51.388;7.086;2023-07-31T11:54:25;9.80;;;4.00;;
3321;SDS011;1673;51.388;7.086;2023-07-31T11:56:55;8.95;;;4.22;;
3321;SDS011;1673;51.388;7.086;2023-07-31T11:59:28;8.77;;;3.30;;
3321;SDS011;1673;51.388;7.086;2023-07-31T12:01:58;9.33;;;3.73;;
3321;SDS011;1673;51.388;7.086;2023-07-31T12:04:29;7.70;;;3.40;;
3321;SDS011;1673;51.388;7.086;2023-07-31T12:07:02;8.93;;;3.38;;
3321;SDS011;1673;51.388;7.086;2023-07-31T12:09:32;7.40;;;3.30;;
3321;SDS011;1673;51.388;7.086;2023-07-31T12:12:03;7.60;;;3.47;;
3321;SDS011;1673;51.388;7.086;2023-07-31T12:14:37;8.13;;;3.20;;
3321;SDS011;1673;51.388;7.086;2023-07-31T12:17:11;9.82;;;3.58;;
3321;SDS011;1673;51.388;7.086;2023-07-31T12:19:41;9.05;;;3.22;;
3321;SDS011;1673;51.388;7.086;2023-07-31T12:22:15;8.65;;;3.40;;
3321;SDS011;1673;51.388;7.086;2023-07-31T12:24:46;8.95;;;3.40;;
3321;SDS011;1673;51.388;7.086;2023-07-31T12:27:16;6.53;;;3.00;;
3321;SDS011;1673;51.388;7.086;2023-07-31T12:29:48;7.90;;;2.90;;
3321;SDS011;1673;51.388;7.086;2023-07-31T12:32:19;8.77;;;3.65;;
3321;SDS011;1673;51.388;7.086;2023-07-31T12:34:51;8.18;;;3.30;;
3321;SDS011;1673;51.388;7.086;2023-07-31T12:37:23;6.60;;;3.15;;
3321;SDS011;1673;51.388;7.086;2023-07-31T12:39:53;8.10;;;3.10;;
3321;SDS011;1673;51.388;7.086;2023-07-31T12:42:27;8.50;;;3.70;;
3321;SDS011;1673;51.388;7.086;2023-07-31T12:44:57;8.48;;;3.20;;
3321;SDS011;1673;51.388;7.086;2023-07-31T12:47:27;9.35;;;3.10;;
3321;SDS011;1673;51.388;7.086;2023-07-31T12:49:57;7.35;;;3.20;;
3321;SDS011;1673;51.388;7.086;2023-07-31T12:52:32;7.10;;;3.08;;
3321;SDS011;1673;51.388;7.086;2023-07-31T12:55:02;9.10;;;3.33;;
3321;SDS011;1673;51.388;7.086;2023-07-31T12:57:34;7.15;;;3.10;;
3321;SDS011;1673;51.388;7.086;2023-07-31T13:00:05;6.20;;;2.53;;
3321;SDS011;1673;51.388;7.086;2023-07-31T13:02:37;6.82;;;2.80;;
3321;SDS011;1673;51.388;7.086;2023-07-31T13:05:23;6.17;;;2.53;;
3321;SDS011;1673;51.388;7.086;2023-07-31T13:08:12;5.50;;;2.38;;
3321;SDS011;1673;51.388;7.086;2023-07-31T13:10:58;5.93;;;2.67;;
3321;SDS011;1673;51.388;7.086;2023-07-31T13:13:28;9.35;;;3.00;;
3321;SDS011;1673;51.388;7.086;2023-07-31T13:15:59;5.03;;;2.50;;
3321;SDS011;1673;51.388;7.086;2023-07-31T13:18:29;6.70;;;2.50;;
3321;SDS011;1673;51.388;7.086;2023-07-31T13:20:59;5.90;;;2.60;;
3321;SDS011;1673;51.388;7.086;2023-07-31T13:23:32;6.70;;;2.90;;
3321;SDS011;1673;51.388;7.086;2023-07-31T13:26:02;10.90;;;3.20;;
3321;SDS011;1673;51.388;7.086;2023-07-31T13:28:32;8.38;;;3.03;;
3321;SDS011;1673;51.388;7.086;2023-07-31T13:31:02;7.60;;;3.00;;
3321;SDS011;1673;51.388;7.086;2023-07-31T13:33:33;6.43;;;3.20;;
3321;SDS011;1673;51.388;7.086;2023-07-31T13:36:06;7.88;;;3.35;;
3321;SDS011;1673;51.388;7.086;2023-07-31T13:38:39;10.32;;;3.45;;
3321;SDS011;1673;51.388;7.086;2023-07-31T13:41:10;9.93;;;3.80;;
3321;SDS011;1673;51.388;7.086;2023-07-31T13:43:40;8.90;;;3.30;;
3321;SDS011;1673;51.388;7.086;2023-07-31T13:46:11;15.00;;;3.50;;
3321;SDS011;1673;51.388;7.086;2023-07-31T13:48:41;8.23;;;3.70;;
3321;SDS011;1673;51.388;7.086;2023-07-31T13:51:11;7.20;;;3.58;;
3321;SDS011;1673;51.388;7.086;2023-07-31T13:53:45;9.15;;;4.07;;
3321;SDS011;1673;51.388;7.086;2023-07-31T13:56:15;10.23;;;4.30;;
3321;SDS011;1673;51.388;7.086;2023-07-31T13:58:45;8.93;;;3.90;;
3321;SDS011;1673;51.388;7.086;2023-07-31T14:01:15;9.00;;;4.13;;
3321;SDS011;1673;51.388;7.086;2023-07-31T14:03:45;9.17;;;3.87;;
3321;SDS011;1673;51.388;7.086;2023-07-31T14:06:16;12.23;;;4.00;;
3321;SDS011;1673;51.388;7.086;2023-07-31T14:08:48;10.95;;;4.63;;
3321;SDS011;1673;51.388;7.086;2023-07-31T14:11:19;8.35;;;4.22;;
3321;SDS011;1673;51.388;7.086;2023-07-31T14:13:49;9.00;;;4.37;;
3321;SDS011;1673;51.388;7.086;2023-07-31T14:16:20;10.55;;;3.80;;
3321;SDS011;1673;51.388;7.086;2023-07-31T14:18:50;10.00;;;4.20;;
3321;SDS011;1673;51.388;7.086;2023-07-31T14:21:21;9.18;;;4.38;;
3321;SDS011;1673;51.388;7.086;2023-07-31T14:23:53;9.80;;;4.20;;
3321;SDS011;1673;51.388;7.086;2023-07-31T14:26:24;10.50;;;4.90;;
3321;SDS011;1673;51.388;7.086;2023-07-31T14:28:54;12.40;;;4.40;;
3321;SDS011;1673;51.388;7.086;2023-07-31T14:31:24;12.48;;;4.10;;
3321;SDS011;1673;51.388;7.086;2023-07-31T14:33:55;9.43;;;3.78;;
3321;SDS011;1673;51.388;7.086;2023-07-31T14:36:25;8.57;;;3.83;;
3321;SDS011;1673;51.388;7.086;2023-07-31T14:38:58;10.85;;;4.82;;
3321;SDS011;1673;51.388;7.086;2023-07-31T14:41:28;10.07;;;4.30;;
3321;SDS011;1673;51.388;7.086;2023-07-31T14:43:58;8.80;;;3.40;;
3321;SDS011;1673;51.388;7.086;2023-07-31T14:46:29;10.10;;;3.93;;
3321;SDS011;1673;51.388;7.086;2023-07-31T14:48:59;9.77;;;4.22;;
3321;SDS011;1673;51.388;7.086;2023-07-31T14:51:29;10.52;;;4.10;;
3321;SDS011;1673;51.388;7.086;2023-07-31T14:54:02;10.13;;;3.95;;
3321;SDS011;1673;51.388;7.086;2023-07-31T14:56:32;10.00;;;4.20;;
3321;SDS011;1673;51.388;7.086;2023-07-31T14:59:02;8.93;;;4.35;;
3321;SDS011;1673;51.388;7.086;2023-07-31T15:01:34;10.32;;;4.72;;
3321;SDS011;1673;51.388;7.086;2023-07-31T15:04:04;10.88;;;4.32;;
3321;SDS011;1673;51.388;7.086;2023-07-31T15:06:34;10.88;;;4.32;;
3321;SDS011;1673;51.388;7.086;2023-07-31T15:09:08;7.70;;;4.00;;
3321;SDS011;1673;51.388;7.086;2023-07-31T15:11:38;10.18;;;4.80;;
3321;SDS011;1673;51.388;7.086;2023-07-31T15:14:08;8.30;;;4.10;;
3321;SDS011;1673;51.388;7.086;2023-07-31T15:16:42;11.20;;;4.40;;
3321;SDS011;1673;51.388;7.086;2023-07-31T15:19:13;9.68;;;4.90;;
3321;SDS011;1673;51.388;7.086;2023-07-31T15:21:44;10.70;;;4.40;;
3321;SDS011;1673;51.388;7.086;2023-07-31T15:24:16;10.88;;;4.70;;
3321;SDS011;1673;51.388;7.086;2023-07-31T15:26:47;10.05;;;4.80;;
3321;SDS011;1673;51.388;7.086;2023-07-31T15:29:17;10.57;;;4.30;;
3321;SDS011;1673;51.388;7.086;2023-07-31T15:31:47;10.18;;;4.57;;
3321;SDS011;1673;51.388;7.086;2023-07-31T15:34:18;12.37;;;5.30;;
3321;SDS011;1673;51.388;7.086;2023-07-31T15:36:57;12.57;;;5.30;;
3321;SDS011;1673;51.388;7.086;2023-07-31T16:18:40;10.85;;;5.10;;
3321;SDS011;1673;51.388;7.086;2023-07-31T16:21:30;10.38;;;4.93;;
3321;SDS011;1673;51.388;7.086;2023-07-31T16:24:01;10.07;;;5.38;;
3321;SDS011;1673;51.388;7.086;2023-07-31T16:26:42;11.35;;;4.75;;
3321;SDS011;1673;51.388;7.086;2023-07-31T16:39:29;11.97;;;5.67;;
3321;SDS011;1673;51.388;7.086;2023-07-31T16:42:10;12.77;;;4.97;;